Time;durP1;ratioP1;P1;durP2;ratioP2;P2;SDS_P1;SDS_P2;PMS_P1;PMS_P2;Temp;Humidity;BMP_temperature;BMP_pressure;BME280_temperature;BME280_humidity;BME280_pressure;Samples;Min_cycle;Max_cycle;Signal;HPM_P1;HPM_P2
2021/07/01 00:00:51;;;;;;;1.70;1.27;;;12.70;84.40;;;;;;5016699;28;20041;-73
2021/07/01 00:03:17;;;;;;;0.85;0.85;;;12.70;84.60;;;;;;5032838;28;20073;-73
2021/07/01 00:05:43;;;;;;;1.88;1.00;;;12.70;83.70;;;;;;5036194;28;20030;-73
2021/07/01 00:08:09;;;;;;;1.42;1.08;;;12.70;84.10;;;;;;5036316;28;20018;-72
2021/07/01 00:10:36;;;;;;;2.88;1.42;;;12.70;84.60;;;;;;5036324;28;20083;-72
2021/07/01 00:13:02;;;;;;;2.38;0.88;;;12.70;85.50;;;;;;5036214;28;20037;-72
2021/07/01 00:15:30;;;;;;;1.75;1.00;;;12.70;83.40;;;;;;5036217;28;20029;-73
2021/07/01 00:17:56;;;;;;;1.63;0.85;;;12.80;84.10;;;;;;5036164;28;20382;-72
2021/07/01 00:20:22;;;;;;;1.17;1.05;;;12.80;84.10;;;;;;5036071;28;20033;-72
2021/07/01 00:22:49;;;;;;;1.17;0.90;;;12.80;83.90;;;;;;5035911;28;20095;-72
2021/07/01 00:25:15;;;;;;;1.30;0.93;;;12.90;85.10;;;;;;5035932;28;20029;-73
2021/07/01 00:27:41;;;;;;;1.02;0.93;;;13.00;84.80;;;;;;5035820;28;20017;-72
2021/07/01 00:30:09;;;;;;;1.35;0.82;;;13.00;82.40;;;;;;5035937;28;20030;-73
2021/07/01 00:32:35;;;;;;;0.77;0.77;;;12.90;82.80;;;;;;5035772;28;20029;-72
2021/07/01 00:35:00;;;;;;;0.73;0.73;;;12.90;81.60;;;;;;5035812;28;20029;-72
2021/07/01 00:37:29;;;;;;;0.75;0.75;;;12.80;81.80;;;;;;5035747;28;20100;-73
2021/07/01 00:39:55;;;;;;;1.23;0.68;;;12.80;81.80;;;;;;5035655;28;20087;-72
2021/07/01 00:42:21;;;;;;;0.95;0.82;;;12.90;82.20;;;;;;5035666;28;20026;-73
2021/07/01 00:44:47;;;;;;;2.30;1.25;;;12.80;83.30;;;;;;5035563;28;20497;-72
2021/07/01 00:47:12;;;;;;;2.63;1.08;;;12.80;82.50;;;;;;5035416;28;20021;-73
2021/07/01 00:49:38;;;;;;;1.42;0.68;;;12.80;83.30;;;;;;5035460;28;20028;-72
2021/07/01 00:52:04;;;;;;;0.65;0.57;;;12.80;82.40;;;;;;5035887;28;20488;-73
2021/07/01 00:54:30;;;;;;;1.42;1.05;;;12.80;82.20;;;;;;5034279;28;20029;-74
2021/07/01 00:56:55;;;;;;;0.65;0.60;;;12.80;82.30;;;;;;5035387;28;20379;-72
2021/07/01 00:59:21;;;;;;;0.50;0.50;;;12.90;82.00;;;;;;5035416;28;20045;-72
2021/07/01 01:01:47;;;;;;;0.88;0.70;;;13.00;81.10;;;;;;5035035;28;20437;-72
2021/07/01 01:04:13;;;;;;;1.92;0.93;;;13.00;81.10;;;;;;5035299;28;20026;-72
2021/07/01 01:06:38;;;;;;;1.05;0.60;;;13.00;81.20;;;;;;5035117;28;20072;-73
2021/07/01 01:09:08;;;;;;;0.82;0.60;;;13.00;80.70;;;;;;5035228;28;20064;-73
2021/07/01 01:11:33;;;;;;;0.60;0.60;;;13.10;80.90;;;;;;5035026;28;20021;-73
2021/07/01 01:13:59;;;;;;;0.70;0.65;;;13.10;80.80;;;;;;5035062;28;20432;-73
2021/07/01 01:16:25;;;;;;;0.80;0.80;;;13.20;81.70;;;;;;5034954;28;20112;-73
2021/07/01 01:18:51;;;;;;;0.65;0.65;;;13.20;81.90;;;;;;5034970;28;20100;-73
2021/07/01 01:21:21;;;;;;;1.13;0.95;;;13.30;82.40;;;;;;5034779;28;20029;-73
2021/07/01 01:23:46;;;;;;;1.00;0.77;;;13.30;82.90;;;;;;5034852;28;20045;-73
2021/07/01 01:26:12;;;;;;;1.63;0.70;;;13.40;83.60;;;;;;5034723;28;20482;-74
2021/07/01 01:28:38;;;;;;;1.33;1.05;;;13.40;82.80;;;;;;5034681;28;20029;-73
2021/07/01 01:31:04;;;;;;;0.93;0.90;;;13.40;83.20;;;;;;5034643;28;20424;-73
2021/07/01 01:33:30;;;;;;;0.95;0.82;;;13.40;82.60;;;;;;5034658;28;20555;-73
2021/07/01 01:35:55;;;;;;;0.60;0.60;;;13.40;81.80;;;;;;5034659;28;20053;-73
2021/07/01 01:38:21;;;;;;;1.40;0.98;;;13.40;81.90;;;;;;5016751;28;20036;-72
2021/07/01 01:40:48;;;;;;;0.77;0.77;;;13.40;81.00;;;;;;5034545;28;20511;-72
2021/07/01 01:43:20;;;;;;;1.95;0.75;;;13.30;81.70;;;;;;5034527;28;20022;-72
2021/07/01 01:45:46;;;;;;;1.90;0.70;;;13.40;82.10;;;;;;5034303;28;20022;-73
2021/07/01 01:48:12;;;;;;;2.75;1.00;;;13.40;81.00;;;;;;5034462;28;20036;-73
2021/07/01 01:50:39;;;;;;;1.00;0.90;;;13.40;79.80;;;;;;5034199;28;20478;-73
2021/07/01 01:53:05;;;;;;;2.97;0.90;;;13.30;79.40;;;;;;5034308;28;20025;-73
2021/07/01 01:55:32;;;;;;;1.23;0.90;;;13.30;79.50;;;;;;5034104;28;20049;-73
2021/07/01 01:57:59;;;;;;;1.15;1.05;;;13.30;79.50;;;;;;5034209;28;20029;-73
2021/07/01 02:00:25;;;;;;;1.45;1.00;;;13.30;80.00;;;;;;5034090;28;20033;-72
2021/07/01 02:02:51;;;;;;;1.13;1.02;;;13.30;80.30;;;;;;5033940;28;20069;-72
2021/07/01 02:05:17;;;;;;;0.98;0.82;;;13.30;79.60;;;;;;5033853;28;20064;-74
2021/07/01 02:07:43;;;;;;;1.42;1.02;;;13.30;79.80;;;;;;5033946;28;20022;-74
2021/07/01 02:10:15;;;;;;;1.80;1.02;;;13.30;79.60;;;;;;5033992;28;20502;-74
2021/07/01 02:12:41;;;;;;;2.03;0.90;;;13.20;80.30;;;;;;5033990;28;20032;-74
2021/07/01 02:15:09;;;;;;;1.38;1.27;;;13.20;80.30;;;;;;5033978;28;20026;-74
2021/07/01 02:17:35;;;;;;;1.80;1.42;;;13.10;80.60;;;;;;5033844;28;20037;-74
2021/07/01 02:20:04;;;;;;;1.40;1.25;;;13.10;80.50;;;;;;5033686;28;20037;-74
2021/07/01 02:22:30;;;;;;;1.60;1.50;;;13.10;81.10;;;;;;5033647;28;20037;-74
2021/07/01 02:24:55;;;;;;;1.85;1.52;;;13.10;82.00;;;;;;5033670;28;20469;-74
2021/07/01 02:27:21;;;;;;;1.27;1.17;;;13.00;81.70;;;;;;5032292;28;20097;-74
2021/07/01 02:29:46;;;;;;;2.72;1.65;;;13.10;81.70;;;;;;5033518;28;20040;-74
2021/07/01 02:32:12;;;;;;;1.73;1.55;;;13.10;82.00;;;;;;5033594;28;20358;-74
2021/07/01 02:34:40;;;;;;;1.88;1.60;;;13.00;82.10;;;;;;5033503;28;20025;-74
2021/07/01 02:37:08;;;;;;;3.67;1.98;;;13.00;82.20;;;;;;5033463;28;20013;-73
2021/07/01 02:39:35;;;;;;;2.30;1.73;;;13.00;82.00;;;;;;5033289;28;20041;-75
2021/07/01 02:42:01;;;;;;;2.85;1.60;;;13.00;81.80;;;;;;5033447;28;20370;-72
2021/07/01 02:44:27;;;;;;;1.40;1.30;;;13.10;81.80;;;;;;5033291;28;20112;-72
2021/07/01 02:46:52;;;;;;;2.00;1.80;;;13.10;81.90;;;;;;5015688;28;20117;-72
2021/07/01 02:49:18;;;;;;;1.85;1.70;;;13.10;81.80;;;;;;5033345;28;20056;-72
2021/07/01 02:51:43;;;;;;;2.15;1.50;;;13.20;81.90;;;;;;5033204;28;20033;-74
2021/07/01 02:54:09;;;;;;;3.20;2.22;;;13.20;81.60;;;;;;5033327;28;20486;-74
2021/07/01 02:56:40;;;;;;;3.63;1.80;;;13.20;82.20;;;;;;5033058;28;20378;-74
2021/07/01 02:59:14;;;;;;;2.08;1.52;;;13.20;81.50;;;;;;5033159;28;20065;-74
2021/07/01 03:01:43;;;;;;;2.20;1.88;;;13.20;81.60;;;;;;5032966;28;20485;-73
2021/07/01 03:04:10;;;;;;;2.25;1.80;;;13.20;81.90;;;;;;5033118;28;20029;-73
2021/07/01 03:06:36;;;;;;;1.90;1.60;;;13.30;82.30;;;;;;5033058;28;20026;-73
2021/07/01 03:09:02;;;;;;;3.05;1.70;;;13.20;81.90;;;;;;5015466;28;20032;-73
2021/07/01 03:11:28;;;;;;;2.33;1.80;;;13.30;82.30;;;;;;5033069;28;20024;-72
2021/07/01 03:13:54;;;;;;;1.88;1.73;;;13.30;81.50;;;;;;5033064;28;20037;-72
2021/07/01 03:16:20;;;;;;;2.83;1.80;;;13.30;81.90;;;;;;5032983;28;20033;-73
2021/07/01 03:18:47;;;;;;;3.45;2.08;;;13.20;82.20;;;;;;5037856;28;20485;-73
2021/07/01 03:21:13;;;;;;;2.42;1.80;;;13.10;83.00;;;;;;5039608;28;20033;-75
2021/07/01 03:23:39;;;;;;;5.95;2.55;;;13.10;83.70;;;;;;5039528;28;20071;-74
2021/07/01 03:26:05;;;;;;;2.80;2.38;;;13.00;84.00;;;;;;5039549;28;20037;-73
2021/07/01 03:28:31;;;;;;;5.00;2.00;;;13.00;84.50;;;;;;5039332;28;20489;-73
2021/07/01 03:30:56;;;;;;;4.25;2.28;;;13.00;85.00;;;;;;5039376;28;20029;-73
2021/07/01 03:33:22;;;;;;;3.58;2.45;;;13.00;84.70;;;;;;5039387;28;20063;-74
2021/07/01 03:35:48;;;;;;;2.17;1.90;;;13.00;84.80;;;;;;5039235;28;20025;-74
2021/07/01 03:38:14;;;;;;;2.60;2.03;;;13.00;84.70;;;;;;5039259;28;20033;-73
2021/07/01 03:40:39;;;;;;;2.83;1.50;;;13.00;84.50;;;;;;5039141;28;20048;-73
2021/07/01 03:43:05;;;;;;;4.90;2.38;;;13.00;84.90;;;;;;5038177;28;20109;-73
2021/07/01 03:45:30;;;;;;;5.22;1.95;;;13.00;84.90;;;;;;5039048;28;20021;-73
2021/07/01 03:47:56;;;;;;;2.45;1.75;;;13.00;85.30;;;;;;5039198;28;20389;-73
2021/07/01 03:50:22;;;;;;;2.97;2.05;;;13.00;85.60;;;;;;5039140;28;20490;-73
2021/07/01 03:52:47;;;;;;;2.42;1.83;;;12.90;87.00;;;;;;5021337;28;20144;-73
2021/07/01 03:55:13;;;;;;;2.42;2.00;;;12.90;86.80;;;;;;5039190;28;20075;-73
2021/07/01 03:57:39;;;;;;;2.20;1.95;;;12.90;86.90;;;;;;5039214;28;20028;-73
2021/07/01 04:00:06;;;;;;;3.78;1.55;;;12.90;86.30;;;;;;5039096;28;20033;-73
2021/07/01 04:02:32;;;;;;;3.33;2.15;;;13.00;86.20;;;;;;5038891;28;20498;-72
2021/07/01 04:04:57;;;;;;;2.63;2.10;;;13.00;86.70;;;;;;5039230;28;20136;-72
2021/07/01 04:07:23;;;;;;;5.30;3.63;;;13.00;86.70;;;;;;5039184;28;20022;-72
2021/07/01 04:09:49;;;;;;;2.65;2.28;;;13.00;86.00;;;;;;5039147;28;20037;-72
2021/07/01 04:12:14;;;;;;;4.28;2.10;;;13.10;86.10;;;;;;5037783;28;20021;-72
2021/07/01 04:14:40;;;;;;;2.42;1.95;;;13.10;85.80;;;;;;5039159;28;20080;-72
2021/07/01 04:17:05;;;;;;;2.67;2.20;;;13.10;85.90;;;;;;5039138;28;20075;-72
2021/07/01 04:19:31;;;;;;;2.47;2.00;;;13.20;85.30;;;;;;5038788;28;20037;-73
2021/07/01 04:21:57;;;;;;;2.55;2.28;;;13.20;84.90;;;;;;5038870;28;20049;-73
2021/07/01 04:24:23;;;;;;;2.38;2.00;;;13.30;85.00;;;;;;5038915;28;20043;-73
2021/07/01 04:26:48;;;;;;;5.07;2.13;;;13.40;84.60;;;;;;5038856;28;20044;-73
2021/07/01 04:29:14;;;;;;;2.40;2.20;;;13.40;84.40;;;;;;5037737;28;20047;-73
2021/07/01 04:31:40;;;;;;;4.93;2.92;;;13.40;84.20;;;;;;5035716;28;20029;-72
2021/07/01 04:34:06;;;;;;;6.20;2.60;;;13.40;84.10;;;;;;5035738;28;20083;-73
2021/07/01 04:36:32;;;;;;;3.42;2.10;;;13.50;83.30;;;;;;5035919;28;20025;-73
2021/07/01 04:38:59;;;;;;;2.92;2.47;;;13.40;83.70;;;;;;5035733;28;20032;-73
2021/07/01 04:41:25;;;;;;;4.80;2.42;;;13.50;83.60;;;;;;5017914;28;20040;-73
2021/07/01 04:43:50;;;;;;;4.85;2.72;;;13.40;83.40;;;;;;5035632;28;20025;-73
2021/07/01 04:46:16;;;;;;;3.65;2.90;;;13.50;83.60;;;;;;5035681;28;20037;-73
2021/07/01 04:48:42;;;;;;;6.40;4.00;;;13.50;82.90;;;;;;5035512;28;20025;-73
2021/07/01 04:51:08;;;;;;;7.95;2.95;;;13.40;83.20;;;;;;5035325;28;20026;-73
2021/07/01 04:53:34;;;;;;;7.25;3.20;;;13.40;83.00;;;;;;5035225;28;20420;-73
2021/07/01 04:55:59;;;;;;;4.40;3.10;;;13.40;83.50;;;;;;5035230;28;20113;-73
2021/07/01 04:58:25;;;;;;;4.78;3.25;;;13.40;84.00;;;;;;5035070;28;20033;-73
2021/07/01 05:00:50;;;;;;;3.65;3.13;;;13.30;85.00;;;;;;5035076;28;20044;-73
2021/07/01 05:03:16;;;;;;;5.18;3.33;;;13.30;85.30;;;;;;5034948;28;20457;-73
2021/07/01 05:05:41;;;;;;;3.38;2.95;;;13.30;85.40;;;;;;5035092;28;20029;-74
2021/07/01 05:08:07;;;;;;;4.22;3.35;;;13.30;85.40;;;;;;5035260;28;20049;-74
2021/07/01 05:10:33;;;;;;;3.45;2.80;;;13.20;85.80;;;;;;5016963;28;20018;-74
2021/07/01 05:12:59;;;;;;;3.13;2.83;;;13.20;85.90;;;;;;5034915;28;20146;-73
2021/07/01 05:15:25;;;;;;;5.07;3.03;;;13.10;86.60;;;;;;5034774;28;20056;-73
2021/07/01 05:17:51;;;;;;;6.07;4.18;;;13.10;87.30;;;;;;5034691;28;20040;-73
2021/07/01 05:20:16;;;;;;;5.32;3.42;;;13.20;87.30;;;;;;5034538;28;20041;-73
2021/07/01 05:22:42;;;;;;;4.82;2.80;;;13.20;87.30;;;;;;5034543;28;20378;-73
2021/07/01 05:25:08;;;;;;;3.97;3.20;;;13.20;87.00;;;;;;5034400;28;20029;-73
2021/07/01 05:27:34;;;;;;;9.90;4.70;;;13.20;87.10;;;;;;5034299;28;20163;-73
2021/07/01 05:30:00;;;;;;;4.88;3.30;;;13.30;87.30;;;;;;5033778;28;20092;-73
2021/07/01 05:32:25;;;;;;;5.10;3.72;;;13.30;86.60;;;;;;5034046;28;20506;-73
2021/07/01 05:34:51;;;;;;;4.85;3.53;;;13.30;87.80;;;;;;5034572;28;20025;-74
2021/07/01 05:37:17;;;;;;;7.45;4.40;;;13.30;86.50;;;;;;5036617;28;20390;-73
2021/07/01 05:39:43;;;;;;;10.25;6.18;;;13.40;86.10;;;;;;5016465;28;20030;-74
2021/07/01 05:42:08;;;;;;;4.68;4.00;;;13.50;86.40;;;;;;5033756;28;20083;-73
2021/07/01 05:44:34;;;;;;;4.65;3.92;;;13.50;85.60;;;;;;5029995;28;20018;-74
2021/07/01 05:46:59;;;;;;;5.57;3.90;;;13.60;86.00;;;;;;5012667;28;20018;-74
2021/07/01 05:49:25;;;;;;;8.32;4.07;;;13.60;85.60;;;;;;5038775;28;20025;-73
2021/07/01 05:51:55;;;;;;;6.35;4.47;;;13.70;85.50;;;;;;5053937;28;20028;-73
2021/07/01 05:56:53;;;;;;;5.70;3.85;;;13.80;84.90;;;;;;5053732;28;20473;-73
2021/07/01 05:59:20;;;;;;;8.05;3.70;;;13.80;83.90;;;;;;5054110;28;20037;-75
2021/07/01 06:01:46;;;;;;;6.53;3.50;;;13.60;83.00;;;;;;5053868;28;20033;-74
2021/07/01 06:04:12;;;;;;;6.47;4.10;;;13.60;83.00;;;;;;5036181;28;20025;-75
2021/07/01 06:06:40;;;;;;;5.05;3.78;;;13.60;83.40;;;;;;5053684;28;20040;-74
2021/07/01 06:09:07;;;;;;;4.43;3.53;;;13.70;83.20;;;;;;5053869;28;20388;-74
2021/07/01 06:11:33;;;;;;;3.58;3.15;;;13.80;83.70;;;;;;5053687;28;20017;-74
2021/07/01 06:14:00;;;;;;;4.80;3.00;;;13.90;83.40;;;;;;5053427;28;20025;-74
2021/07/01 06:16:28;;;;;;;4.72;3.42;;;14.00;82.40;;;;;;5053631;28;20021;-74
2021/07/01 06:18:54;;;;;;;5.43;3.70;;;14.00;81.60;;;;;;5035440;28;20036;-74
2021/07/01 06:21:22;;;;;;;5.15;3.05;;;14.10;82.30;;;;;;5053369;28;20028;-74
2021/07/01 06:23:49;;;;;;;5.93;3.45;;;14.20;81.00;;;;;;5053269;28;20052;-74
2021/07/01 06:26:15;;;;;;;5.70;2.75;;;14.30;81.50;;;;;;5053577;28;20032;-74
2021/07/01 06:28:43;;;;;;;3.92;2.90;;;14.40;80.80;;;;;;5053257;28;20044;-74
2021/07/01 06:31:09;;;;;;;5.97;3.13;;;14.40;79.00;;;;;;5053437;28;20029;-73
2021/07/01 06:33:39;;;;;;;5.07;2.85;;;14.40;79.00;;;;;;5053151;28;20031;-74
2021/07/01 06:36:07;;;;;;;4.90;2.95;;;14.40;78.90;;;;;;5053161;28;20462;-73
2021/07/01 06:38:35;;;;;;;5.40;3.60;;;14.50;78.40;;;;;;5053135;28;20021;-73
2021/07/01 06:41:03;;;;;;;10.43;6.70;;;14.40;78.50;;;;;;5053193;28;20032;-73
2021/07/01 06:43:29;;;;;;;4.35;2.90;;;14.40;78.40;;;;;;5053026;28;20017;-74
2021/07/01 06:45:56;;;;;;;5.93;3.40;;;14.40;78.80;;;;;;5054432;28;20078;-74
2021/07/01 06:48:23;;;;;;;5.47;3.30;;;14.50;78.70;;;;;;5053634;28;20021;-74
2021/07/01 06:50:59;;;;;;;3.95;3.10;;;14.50;78.60;;;;;;5056644;28;20035;-74
2021/07/01 06:53:27;;;;;;;4.35;3.25;;;14.40;79.30;;;;;;5054748;28;20021;-74
2021/07/01 06:55:53;;;;;;;4.47;3.25;;;14.60;79.10;;;;;;5053148;28;20025;-73
2021/07/01 06:58:20;;;;;;;4.05;2.85;;;14.70;78.90;;;;;;5052725;28;20033;-74
2021/07/01 07:00:47;;;;;;;5.40;3.20;;;14.70;79.60;;;;;;5052924;28;20044;-74
2021/07/01 07:03:18;;;;;;;4.35;2.90;;;14.80;79.00;;;;;;5052905;28;20378;-73
2021/07/01 07:05:54;;;;;;;3.78;3.38;;;15.00;77.70;;;;;;5052784;28;20524;-73
2021/07/01 07:08:21;;;;;;;4.53;3.45;;;14.80;76.10;;;;;;5052939;28;20362;-73
2021/07/01 07:10:47;;;;;;;7.38;3.95;;;14.80;77.30;;;;;;5053111;28;20017;-74
2021/07/01 07:13:14;;;;;;;5.38;3.63;;;14.70;77.10;;;;;;5052706;28;20021;-73
2021/07/01 07:15:40;;;;;;;6.30;3.92;;;14.70;76.90;;;;;;5052767;28;20465;-73
2021/07/01 07:18:30;;;;;;;8.20;3.40;;;14.80;77.60;;;;;;5052757;28;20032;-73
2021/07/01 07:20:57;;;;;;;6.88;3.90;;;14.80;77.00;;;;;;5052702;28;20386;-73
2021/07/01 07:23:29;;;;;;;4.18;3.40;;;14.90;76.40;;;;;;5052596;28;20492;-73
2021/07/01 07:25:55;;;;;;;4.65;3.95;;;14.80;76.50;;;;;;5052631;28;20032;-74
2021/07/01 07:28:23;;;;;;;5.78;3.05;;;14.90;77.80;;;;;;5052490;28;20044;-74
2021/07/01 07:30:53;;;;;;;4.70;2.90;;;15.10;80.30;;;;;;5052447;28;20535;-75
2021/07/01 07:33:23;;;;;;;10.15;3.00;;;15.40;77.10;;;;;;5052381;28;20116;-81
2021/07/01 07:35:49;;;;;;;6.35;3.33;;;15.50;75.50;;;;;;5052396;28;20025;-80
2021/07/01 07:38:17;;;;;;;6.28;3.55;;;15.60;75.60;;;;;;5052020;28;20428;-79
2021/07/01 07:40:43;;;;;;;5.13;3.60;;;15.90;74.60;;;;;;5052227;28;20045;-80
2021/07/01 07:43:13;;;;;;;8.30;3.70;;;15.80;74.50;;;;;;5052380;28;20045;-81
2021/07/01 07:45:42;;;;;;;5.78;3.10;;;15.80;74.50;;;;;;5052261;28;20029;-80
2021/07/01 07:48:08;;;;;;;4.45;3.10;;;15.90;75.20;;;;;;5052185;28;20029;-81
2021/07/01 07:50:37;;;;;;;6.78;3.35;;;15.90;73.90;;;;;;5052276;28;20104;-80
2021/07/01 07:53:09;;;;;;;4.63;3.78;;;15.70;74.70;;;;;;5052251;28;20021;-80
2021/07/01 07:55:36;;;;;;;4.72;3.08;;;15.70;75.20;;;;;;5052517;28;20071;-79
2021/07/01 07:58:07;;;;;;;6.30;2.97;;;15.50;75.70;;;;;;5051068;28;20047;-80
2021/07/01 08:00:34;;;;;;;5.78;3.20;;;15.50;76.10;;;;;;5052216;28;20380;-79
2021/07/01 08:03:01;;;;;;;4.10;3.70;;;15.60;76.50;;;;;;5052484;28;20073;-80
2021/07/01 08:05:30;;;;;;;3.35;2.88;;;15.60;76.00;;;;;;5055373;28;20033;-82
2021/07/01 08:07:57;;;;;;;4.03;2.78;;;15.60;76.20;;;;;;5055960;28;20377;-81
2021/07/01 08:10:28;;;;;;;10.02;7.70;;;15.70;76.10;;;;;;5055943;28;20415;-82
2021/07/01 08:13:01;;;;;;;5.80;3.50;;;15.60;75.50;;;;;;5055857;28;20077;-75
2021/07/01 08:15:27;;;;;;;4.65;3.17;;;15.40;75.80;;;;;;5055895;28;20017;-75
2021/07/01 08:17:53;;;;;;;10.07;3.33;;;15.30;76.50;;;;;;5056007;28;20103;-74
2021/07/01 08:20:20;;;;;;;4.75;3.20;;;15.20;76.60;;;;;;5055671;28;20489;-75
2021/07/01 08:22:48;;;;;;;5.70;3.65;;;15.10;77.70;;;;;;5047370;28;20033;-75
2021/07/01 08:25:15;;;;;;;5.35;4.07;;;14.90;79.70;;;;;;5055780;28;20024;-75
2021/07/01 08:27:42;;;;;;;6.40;4.18;;;14.90;81.60;;;;;;5055181;28;20464;-75
2021/07/01 08:30:09;;;;;;;4.80;3.53;;;14.90;80.50;;;;;;5037241;28;20485;-74
2021/07/01 08:32:37;;;;;;;5.53;3.60;;;14.90;81.00;;;;;;5055236;28;20025;-75
2021/07/01 08:35:04;;;;;;;7.30;3.53;;;15.10;80.80;;;;;;5055059;28;20056;-75
2021/07/01 08:37:31;;;;;;;4.78;3.67;;;15.10;80.20;;;;;;5055001;28;20363;-74
2021/07/01 08:40:03;;;;;;;4.13;2.97;;;15.10;80.30;;;;;;5055345;28;20489;-75
2021/07/01 08:42:36;;;;;;;4.35;3.47;;;15.30;79.40;;;;;;5037554;28;20043;-73
2021/07/01 08:45:09;;;;;;;5.18;3.63;;;15.40;78.30;;;;;;5055268;28;20035;-73
2021/07/01 08:47:42;;;;;;;4.25;2.97;;;15.50;78.00;;;;;;5055198;28;20043;-73
2021/07/01 08:50:12;;;;;;;4.38;3.25;;;15.50;78.00;;;;;;5055361;28;20358;-73
2021/07/01 08:52:59;;;;;;;4.00;3.08;;;15.50;77.10;;;;;;5055070;28;20485;-73
2021/07/01 08:55:28;;;;;;;4.25;3.03;;;15.60;75.80;;;;;;5055040;28;20025;-74
2021/07/01 08:57:56;;;;;;;5.45;3.10;;;15.50;75.70;;;;;;5054969;28;20108;-73
2021/07/01 09:00:22;;;;;;;5.68;3.20;;;15.50;76.20;;;;;;5054901;28;20029;-73
2021/07/01 09:03:07;;;;;;;4.32;3.60;;;15.50;75.90;;;;;;5054743;28;20067;-73
2021/07/01 09:05:35;;;;;;;3.38;2.83;;;15.70;76.60;;;;;;5055047;28;20477;-73
2021/07/01 09:08:08;;;;;;;8.07;5.93;;;15.80;74.70;;;;;;5055031;28;20497;-73
2021/07/01 09:10:34;;;;;;;4.00;3.17;;;15.80;74.90;;;;;;5054676;28;20032;-73
2021/07/01 09:13:03;;;;;;;5.60;2.90;;;15.70;73.60;;;;;;5054692;28;20031;-74
2021/07/01 09:15:30;;;;;;;4.82;2.80;;;15.60;73.20;;;;;;5053809;28;20512;-72
2021/07/01 09:17:57;;;;;;;4.10;2.97;;;15.50;73.40;;;;;;5054463;28;20021;-73
2021/07/01 09:20:27;;;;;;;3.50;2.78;;;15.50;72.50;;;;;;5054455;28;20060;-72
2021/07/01 09:22:56;;;;;;;4.78;3.10;;;15.50;72.20;;;;;;5054618;28;20070;-73
2021/07/01 09:25:24;;;;;;;5.47;2.78;;;15.50;72.70;;;;;;5054387;28;20112;-73
2021/07/01 09:27:52;;;;;;;3.45;2.80;;;15.40;73.50;;;;;;5054206;28;20504;-73
2021/07/01 09:30:27;;;;;;;9.10;3.53;;;15.30;74.70;;;;;;5054281;28;20040;-73
2021/07/01 09:32:58;;;;;;;4.57;3.05;;;15.40;74.80;;;;;;5015255;28;20100;-72
2021/07/01 09:35:26;;;;;;;6.05;3.03;;;15.50;75.30;;;;;;5029083;28;20115;-73
2021/07/01 09:37:52;;;;;;;5.80;3.33;;;15.60;74.90;;;;;;5034102;28;20021;-73
2021/07/01 09:40:20;;;;;;;4.32;3.42;;;15.60;74.50;;;;;;5033812;28;20025;-73
2021/07/01 09:42:59;;;;;;;3.38;2.75;;;15.50;75.20;;;;;;5034326;28;20462;-73
2021/07/01 09:45:26;;;;;;;4.55;3.42;;;15.70;74.70;;;;;;5034436;28;20731;-73
2021/07/01 09:48:14;;;;;;;6.25;3.58;;;15.90;74.70;;;;;;5034481;28;20025;-73
2021/07/01 09:50:45;;;;;;;4.88;3.25;;;16.00;73.00;;;;;;5016254;28;20072;-73
2021/07/01 09:53:27;;;;;;;3.47;3.15;;;16.00;72.20;;;;;;5033879;28;20017;-73
2021/07/01 09:55:53;;;;;;;3.88;2.92;;;15.90;72.70;;;;;;5033987;28;20108;-73
2021/07/01 09:58:21;;;;;;;3.30;3.00;;;15.80;72.40;;;;;;5033832;28;20116;-73
2021/07/01 10:00:51;;;;;;;6.68;3.00;;;15.80;73.60;;;;;;5033648;28;20029;-73
2021/07/01 10:03:16;;;;;;;3.40;2.97;;;15.70;72.80;;;;;;5033190;28;20103;-72
2021/07/01 10:05:42;;;;;;;4.07;2.88;;;15.70;74.10;;;;;;5029461;28;20038;-73
2021/07/01 10:08:07;;;;;;;3.60;2.58;;;15.70;73.70;;;;;;5028478;28;20448;-73
2021/07/01 10:10:50;;;;;;;3.15;2.85;;;15.80;74.70;;;;;;5033363;28;20355;-73
2021/07/01 10:13:18;;;;;;;3.40;2.67;;;16.00;75.20;;;;;;5015962;28;20025;-73
2021/07/01 10:15:46;;;;;;;5.63;2.80;;;16.30;73.60;;;;;;5033462;28;20021;-73
2021/07/01 10:18:20;;;;;;;2.70;2.50;;;16.50;73.20;;;;;;5033581;28;20017;-73
2021/07/01 10:20:48;;;;;;;4.88;3.10;;;16.70;71.70;;;;;;5033118;28;20033;-74
2021/07/01 10:23:26;;;;;;;3.47;2.65;;;17.10;71.00;;;;;;5033265;28;20444;-74
2021/07/01 10:25:56;;;;;;;3.10;2.80;;;17.40;68.70;;;;;;5033474;28;20021;-74
2021/07/01 10:28:24;;;;;;;4.55;2.70;;;17.20;67.30;;;;;;5033238;28;20370;-74
2021/07/01 10:31:11;;;;;;;2.55;2.35;;;17.20;66.80;;;;;;5015542;28;20025;-74
2021/07/01 10:33:40;;;;;;;4.90;2.97;;;17.20;67.10;;;;;;5033555;28;20040;-74
2021/07/01 10:36:15;;;;;;;3.20;2.30;;;17.20;67.60;;;;;;5033525;28;20029;-74
2021/07/01 10:38:49;;;;;;;3.88;2.97;;;17.00;65.90;;;;;;5033257;28;20079;-74
2021/07/01 10:41:34;;;;;;;3.92;2.40;;;16.90;68.10;;;;;;5033134;28;20025;-73
2021/07/01 10:44:01;;;;;;;2.90;2.50;;;17.00;69.80;;;;;;5033167;28;20040;-73
2021/07/01 10:46:40;;;;;;;2.35;2.15;;;17.00;68.30;;;;;;5032876;28;20497;-73
2021/07/01 10:49:06;;;;;;;4.22;3.20;;;17.00;67.90;;;;;;5033012;28;20030;-73
2021/07/01 10:51:34;;;;;;;3.53;2.70;;;16.70;68.20;;;;;;5032524;28;20029;-73
2021/07/01 10:54:13;;;;;;;4.88;2.33;;;16.50;69.30;;;;;;5032661;28;20466;-73
2021/07/01 10:56:41;;;;;;;4.03;2.83;;;16.90;69.20;;;;;;5032431;28;20053;-74
2021/07/01 10:59:08;;;;;;;3.05;2.53;;;17.10;68.30;;;;;;5033013;28;20445;-74
2021/07/01 11:01:36;;;;;;;2.47;2.28;;;17.20;68.10;;;;;;5032335;28;20541;-74
2021/07/01 11:04:17;;;;;;;2.72;2.30;;;17.20;67.60;;;;;;5032698;28;20041;-74
2021/07/01 11:07:00;;;;;;;4.05;2.70;;;17.10;68.40;;;;;;5033311;28;20110;-74
2021/07/01 11:09:40;;;;;;;3.05;2.75;;;16.70;70.30;;;;;;5042373;28;20036;-73
2021/07/01 11:12:06;;;;;;;2.35;1.98;;;16.70;71.10;;;;;;5018646;28;20036;-73
2021/07/01 11:14:45;;;;;;;2.78;2.53;;;16.70;70.20;;;;;;5033235;28;20116;-74
2021/07/01 11:17:10;;;;;;;3.25;2.28;;;16.50;69.80;;;;;;5025870;28;20117;-74
2021/07/01 11:19:41;;;;;;;3.67;2.88;;;16.60;70.70;;;;;;5025474;28;20109;-74
2021/07/01 11:22:07;;;;;;;5.50;3.03;;;16.60;72.10;;;;;;5029052;28;20056;-74
2021/07/01 11:24:37;;;;;;;4.28;3.13;;;16.50;72.10;;;;;;5032775;28;20083;-74
2021/07/01 11:27:03;;;;;;;4.63;3.10;;;16.60;71.50;;;;;;5032697;28;20029;-74
2021/07/01 11:29:40;;;;;;;6.43;3.03;;;16.60;71.70;;;;;;5032674;28;20038;-74
2021/07/01 11:32:27;;;;;;;3.78;2.90;;;16.70;71.30;;;;;;5032747;28;20095;-73
2021/07/01 11:34:54;;;;;;;5.78;2.80;;;16.70;71.80;;;;;;5032578;28;20489;-73
2021/07/01 11:37:39;;;;;;;2.95;2.67;;;16.80;70.50;;;;;;5032856;28;20029;-74
2021/07/01 11:40:20;;;;;;;4.80;2.92;;;16.70;71.10;;;;;;5035622;28;20029;-73
2021/07/01 11:42:49;;;;;;;2.72;2.15;;;16.70;71.70;;;;;;5036731;28;20081;-74
2021/07/01 11:45:15;;;;;;;7.70;2.47;;;16.50;71.40;;;;;;5036342;28;20049;-74
2021/07/01 11:47:42;;;;;;;3.10;2.55;;;16.40;71.40;;;;;;5036335;28;20025;-76
2021/07/01 11:50:09;;;;;;;3.15;2.13;;;16.40;71.30;;;;;;5034964;28;20095;-76
2021/07/01 11:52:35;;;;;;;3.75;2.30;;;16.30;71.90;;;;;;5036607;28;20103;-76
2021/07/01 11:55:01;;;;;;;3.90;2.40;;;16.20;72.10;;;;;;5036366;28;20098;-76
2021/07/01 11:57:28;;;;;;;4.90;2.30;;;16.20;72.60;;;;;;5036363;28;20115;-76
2021/07/01 11:59:55;;;;;;;6.95;5.53;;;16.10;72.40;;;;;;5036709;28;20101;-76
2021/07/01 12:02:21;;;;;;;9.43;3.67;;;16.10;72.20;;;;;;5035049;28;20401;-76
2021/07/01 12:04:48;;;;;;;4.93;2.75;;;16.10;73.40;;;;;;5036103;28;20056;-76
2021/07/01 12:07:24;;;;;;;4.28;2.83;;;16.10;73.60;;;;;;5036414;28;20052;-78
2021/07/01 12:09:51;;;;;;;6.95;2.50;;;16.10;75.00;;;;;;5036207;28;20088;-75
2021/07/01 12:12:23;;;;;;;4.38;2.40;;;16.10;74.00;;;;;;5036291;28;20053;-76
2021/07/01 12:15:02;;;;;;;6.55;2.83;;;16.10;73.60;;;;;;5036154;28;20025;-77
2021/07/01 12:18:06;;;;;;;7.57;2.75;;;16.10;73.30;;;;;;5036078;28;20045;-78
2021/07/01 12:20:31;;;;;;;6.32;2.80;;;16.10;74.30;;;;;;5035654;28;20076;-77
2021/07/01 12:22:58;;;;;;;4.88;3.20;;;16.10;74.20;;;;;;5035856;28;20037;-75
2021/07/01 12:25:27;;;;;;;8.55;2.80;;;16.20;73.80;;;;;;5034725;28;20460;-76
2021/07/01 12:28:05;;;;;;;3.80;2.58;;;16.30;74.40;;;;;;5035070;28;20110;-76
2021/07/01 12:30:58;;;;;;;2.83;2.53;;;16.40;74.20;;;;;;5034714;28;20033;-75
2021/07/01 12:33:47;;;;;;;3.97;2.95;;;16.50;74.70;;;;;;5035835;28;20026;-75
2021/07/01 12:36:28;;;;;;;3.00;2.70;;;16.30;74.80;;;;;;5035635;28;20022;-74
2021/07/01 12:39:10;;;;;;;3.47;2.60;;;16.40;74.80;;;;;;5035503;28;20391;-75
2021/07/01 12:42:07;;;;;;;3.92;2.72;;;16.80;74.50;;;;;;5035479;28;20561;-75
2021/07/01 12:44:38;;;;;;;4.40;3.70;;;17.10;72.00;;;;;;5019359;28;20033;-75
2021/07/01 12:47:17;;;;;;;3.38;3.00;;;17.20;70.70;;;;;;5035461;28;20022;-77
2021/07/01 12:49:48;;;;;;;3.13;2.70;;;17.20;69.40;;;;;;5033492;28;20409;-79
2021/07/01 12:52:17;;;;;;;4.60;2.70;;;17.10;70.70;;;;;;5034709;28;20028;-77
2021/07/01 12:54:43;;;;;;;3.40;2.72;;;17.20;71.40;;;;;;5035455;28;20124;-75